createdAt,value
2018-02-23T00:01:28.852Z,11.43
2018-02-23T00:03:56.371Z,10.60
2018-02-23T00:06:23.893Z,10.10
2018-02-23T00:08:51.416Z,10.70
2018-02-23T00:11:18.921Z,12.07
2018-02-23T00:13:46.445Z,11.07
2018-02-23T00:16:13.970Z,11.20
2018-02-23T00:18:41.483Z,10.87
2018-02-23T00:21:09.021Z,11.27
2018-02-23T00:23:36.548Z,10.67
2018-02-23T00:26:04.080Z,10.70
2018-02-23T00:28:31.604Z,11.53
2018-02-23T00:30:59.127Z,10.33
2018-02-23T00:33:26.643Z,9.90
2018-02-23T00:35:54.182Z,9.80
2018-02-23T00:38:21.706Z,10.93
2018-02-23T00:40:49.250Z,10.53
2018-02-23T00:43:16.770Z,11.13
2018-02-23T00:45:44.289Z,11.60
2018-02-23T00:48:11.813Z,11.33
2018-02-23T00:50:39.337Z,11.57
2018-02-23T00:53:06.852Z,11.77
2018-02-23T00:55:34.389Z,12.70
2018-02-23T00:58:01.908Z,12.67
2018-02-23T01:00:29.426Z,12.30
2018-02-23T01:02:56.972Z,11.83
2018-02-23T01:05:24.499Z,13.07
2018-02-23T01:07:52.020Z,12.90
2018-02-23T01:10:19.533Z,14.77
2018-02-23T01:12:47.060Z,13.80
2018-02-23T01:15:14.582Z,13.30
2018-02-23T01:17:42.101Z,13.10
2018-02-23T01:20:09.624Z,14.27
2018-02-23T01:22:37.176Z,14.00
2018-02-23T01:25:04.705Z,13.47
2018-02-23T01:27:32.225Z,13.90
2018-02-23T01:29:59.741Z,13.97
2018-02-23T01:32:27.265Z,13.90
2018-02-23T01:34:54.802Z,14.20
2018-02-23T01:37:22.328Z,14.60
2018-02-23T01:39:49.859Z,14.47
2018-02-23T01:42:17.383Z,15.17
2018-02-23T01:44:44.967Z,14.97
2018-02-23T01:47:12.494Z,15.10
2018-02-23T01:49:40.013Z,15.83
2018-02-23T01:52:07.529Z,15.87
2018-02-23T01:54:35.045Z,14.90
2018-02-23T01:57:02.566Z,15.20
2018-02-23T01:59:30.080Z,14.10
2018-02-23T02:01:57.597Z,14.70
2018-02-23T02:04:25.108Z,14.03
2018-02-23T02:06:52.629Z,14.57
2018-02-23T02:09:20.153Z,15.00
2018-02-23T02:11:47.679Z,14.30
2018-02-23T02:14:15.194Z,12.93
2018-02-23T02:16:42.731Z,13.73
2018-02-23T02:19:10.260Z,13.27
2018-02-23T02:21:37.782Z,13.10
2018-02-23T02:24:05.298Z,13.33
2018-02-23T02:26:32.822Z,12.83
2018-02-23T02:29:00.362Z,13.33
2018-02-23T02:31:27.873Z,13.87
2018-02-23T02:33:55.393Z,13.80
2018-02-23T02:36:22.920Z,13.90
2018-02-23T02:38:50.446Z,13.60
2018-02-23T02:41:17.971Z,13.27
2018-02-23T02:43:45.498Z,12.60
2018-02-23T02:46:13.022Z,13.20
2018-02-23T02:48:40.537Z,13.50
2018-02-23T02:51:08.057Z,13.37
2018-02-23T02:53:35.588Z,14.53
2018-02-23T02:56:03.111Z,13.10
2018-02-23T02:58:30.641Z,13.27
2018-02-23T03:00:58.161Z,14.27
2018-02-23T03:03:25.677Z,13.50
2018-02-23T03:05:53.201Z,14.30
2018-02-23T03:08:20.732Z,13.70
2018-02-23T03:10:48.252Z,14.10
2018-02-23T03:13:15.769Z,14.80
2018-02-23T03:15:43.300Z,14.70
2018-02-23T03:18:10.829Z,15.33
2018-02-23T03:20:38.353Z,15.70
2018-02-23T03:23:05.873Z,16.50
2018-02-23T03:25:33.402Z,16.10
2018-02-23T03:28:00.920Z,15.90
2018-02-23T03:30:28.459Z,15.47
2018-02-23T03:32:55.981Z,15.80
2018-02-23T03:35:23.505Z,15.90
2018-02-23T03:37:51.029Z,16.37
2018-02-23T03:40:18.553Z,16.13
2018-02-23T03:42:46.082Z,16.40
2018-02-23T03:45:13.601Z,16.33
2018-02-23T03:47:41.123Z,17.30
2018-02-23T03:50:08.655Z,16.20
2018-02-23T03:52:36.174Z,17.13
2018-02-23T03:55:03.723Z,16.73
2018-02-23T03:57:31.245Z,18.23
2018-02-23T03:59:58.765Z,16.97
2018-02-23T04:02:26.281Z,18.00
2018-02-23T04:04:53.810Z,17.43
2018-02-23T04:07:21.332Z,18.87
2018-02-23T04:09:48.857Z,17.90
2018-02-23T04:12:16.391Z,17.53
2018-02-23T04:14:43.924Z,18.53
2018-02-23T04:17:11.452Z,16.97
2018-02-23T04:19:38.975Z,17.40
2018-02-23T04:22:06.495Z,17.60
2018-02-23T04:24:34.020Z,17.37
2018-02-23T04:27:01.542Z,18.07
2018-02-23T04:29:29.077Z,19.87
2018-02-23T04:31:56.613Z,18.17
2018-02-23T04:34:24.138Z,19.13
2018-02-23T04:36:51.663Z,19.67
2018-02-23T04:39:19.186Z,19.97
2018-02-23T04:41:46.709Z,21.57
2018-02-23T04:44:14.234Z,20.30
2018-02-23T04:46:41.749Z,21.13
2018-02-23T04:49:09.277Z,20.13
2018-02-23T04:51:36.801Z,19.70
2018-02-23T04:54:04.333Z,21.20
2018-02-23T04:56:31.858Z,20.97
2018-02-23T04:58:59.384Z,20.60
2018-02-23T05:01:26.903Z,21.63
2018-02-23T05:03:54.429Z,21.20
2018-02-23T05:06:22.074Z,21.30
2018-02-23T05:08:49.621Z,20.40
2018-02-23T05:11:17.142Z,20.90
2018-02-23T05:13:44.677Z,21.00
2018-02-23T05:16:12.210Z,22.07
2018-02-23T05:18:39.735Z,21.50
2018-02-23T05:21:07.274Z,22.33
2018-02-23T05:23:34.798Z,23.00
2018-02-23T05:26:02.329Z,20.63
2018-02-23T05:28:29.882Z,21.33
2018-02-23T05:30:57.417Z,23.97
2018-02-23T05:33:24.946Z,22.27
2018-02-23T05:35:52.464Z,23.57
2018-02-23T05:38:19.979Z,24.57
2018-02-23T05:40:47.502Z,23.87
2018-02-23T05:43:15.031Z,25.60
2018-02-23T05:45:42.574Z,25.70
2018-02-23T05:48:10.106Z,25.77
2018-02-23T05:50:37.641Z,27.37
2018-02-23T05:53:05.200Z,25.80
2018-02-23T05:55:32.728Z,26.40
2018-02-23T05:58:00.250Z,28.90
2018-02-23T06:00:27.764Z,27.37
2018-02-23T06:02:55.288Z,27.80
2018-02-23T06:05:22.809Z,27.07
2018-02-23T06:07:50.344Z,28.23
2018-02-23T06:10:17.864Z,26.13
2018-02-23T06:12:45.398Z,27.53
2018-02-23T06:15:12.929Z,26.17
2018-02-23T06:17:45.926Z,26.60
2018-02-23T06:20:13.446Z,28.07
2018-02-23T06:22:41.043Z,26.93
2018-02-23T06:25:08.566Z,28.20
2018-02-23T06:27:36.112Z,27.20
2018-02-23T06:30:03.641Z,27.87
2018-02-23T06:32:31.165Z,27.83
2018-02-23T06:34:58.691Z,27.97
2018-02-23T06:37:26.217Z,27.47
2018-02-23T06:39:53.728Z,28.27
2018-02-23T06:42:21.249Z,28.33
2018-02-23T06:44:48.774Z,27.73
2018-02-23T06:47:16.295Z,28.97
2018-02-23T06:49:43.819Z,29.27
2018-02-23T06:52:11.341Z,30.10
2018-02-23T06:54:38.869Z,27.30
2018-02-23T06:57:06.473Z,28.77
2018-02-23T06:59:33.997Z,27.47
2018-02-23T07:02:01.527Z,26.83
2018-02-23T07:04:29.068Z,27.80
2018-02-23T07:06:56.592Z,28.30
2018-02-23T07:09:24.124Z,28.43
2018-02-23T07:11:51.652Z,28.23
2018-02-23T07:14:19.186Z,30.20
2018-02-23T07:16:46.700Z,29.00
2018-02-23T07:19:14.222Z,28.60
2018-02-23T07:21:41.749Z,28.93
2018-02-23T07:24:09.275Z,27.33
2018-02-23T07:26:36.813Z,28.53
2018-02-23T07:29:04.382Z,30.43
2018-02-23T07:31:31.903Z,28.67
2018-02-23T07:33:59.420Z,29.97
2018-02-23T07:36:26.950Z,28.60
2018-02-23T07:38:54.471Z,28.30
2018-02-23T07:41:22.017Z,29.43
2018-02-23T07:43:49.531Z,27.80
2018-02-23T07:46:17.044Z,27.20
2018-02-23T07:48:44.566Z,28.03
2018-02-23T07:51:12.096Z,28.17
2018-02-23T07:53:39.623Z,28.60
2018-02-23T07:56:07.144Z,26.97
2018-02-23T07:58:34.669Z,26.60
2018-02-23T08:01:02.192Z,28.53
2018-02-23T08:03:29.709Z,28.57
2018-02-23T08:05:57.229Z,28.33
2018-02-23T08:08:24.748Z,28.23
2018-02-23T08:10:52.269Z,27.50
2018-02-23T08:13:19.794Z,28.30
2018-02-23T08:15:47.315Z,29.43
2018-02-23T08:18:14.836Z,30.30
2018-02-23T08:20:42.357Z,29.57
2018-02-23T08:23:09.869Z,30.23
2018-02-23T08:25:37.412Z,29.93
2018-02-23T08:28:04.931Z,29.83
2018-02-23T08:30:32.445Z,30.87
2018-02-23T08:32:59.982Z,30.73
2018-02-23T08:35:27.500Z,31.20
2018-02-23T08:37:55.026Z,30.30
2018-02-23T08:40:22.546Z,31.07
2018-02-23T08:42:50.070Z,31.67
2018-02-23T08:45:17.590Z,31.80
2018-02-23T08:47:45.108Z,31.40
2018-02-23T08:50:12.619Z,32.33
2018-02-23T08:52:40.140Z,31.87
2018-02-23T08:55:07.654Z,34.93
2018-02-23T08:57:35.172Z,32.90
2018-02-23T09:00:02.701Z,32.70
2018-02-23T09:02:30.209Z,33.73
2018-02-23T09:04:57.725Z,34.07
2018-02-23T09:07:25.244Z,35.20
2018-02-23T09:09:52.756Z,35.37
2018-02-23T09:12:20.283Z,34.43
2018-02-23T09:14:47.797Z,33.37
2018-02-23T09:17:15.368Z,34.50
2018-02-23T09:19:42.857Z,32.57
2018-02-23T09:22:10.369Z,31.43
2018-02-23T09:24:37.912Z,29.90
2018-02-23T09:27:05.428Z,31.40
2018-02-23T09:29:32.940Z,29.60
2018-02-23T09:32:00.456Z,30.70
2018-02-23T09:34:37.730Z,30.90
2018-02-23T09:37:05.262Z,29.97
2018-02-23T09:39:32.782Z,30.20
2018-02-23T09:42:00.303Z,28.97
2018-02-23T09:44:27.846Z,28.03
2018-02-23T09:46:55.354Z,28.10
2018-02-23T09:49:22.861Z,25.23
2018-02-23T09:51:50.389Z,25.23
2018-02-23T09:54:17.924Z,25.20
2018-02-23T09:56:45.444Z,24.83
2018-02-23T09:59:12.978Z,25.02
2018-02-23T10:01:40.510Z,25.00
2018-02-23T10:04:08.030Z,22.37
2018-02-23T10:06:35.561Z,23.67
2018-02-23T10:09:03.089Z,22.33
2018-02-23T10:11:30.621Z,22.08
2018-02-23T10:13:58.142Z,22.40
2018-02-23T10:16:25.655Z,20.85
2018-02-23T10:18:53.184Z,21.95
2018-02-23T10:21:20.707Z,20.42
2018-02-23T10:23:48.232Z,22.15
2018-02-23T10:26:15.757Z,21.55
2018-02-23T10:28:43.272Z,22.77
2018-02-23T10:31:10.788Z,23.23
2018-02-23T10:33:38.337Z,24.10
2018-02-23T10:36:05.857Z,24.03
2018-02-23T10:38:33.372Z,23.03
2018-02-23T10:41:00.912Z,24.33
2018-02-23T10:43:28.443Z,22.90
2018-02-23T10:45:55.970Z,22.50
2018-02-23T10:48:23.489Z,22.57
2018-02-23T10:50:51.008Z,21.93
2018-02-23T10:53:18.516Z,23.23
2018-02-23T10:55:46.024Z,20.37
2018-02-23T10:58:13.599Z,21.13
2018-02-23T11:00:41.112Z,19.30
2018-02-23T11:03:08.645Z,18.80
2018-02-23T11:05:36.202Z,18.97
2018-02-23T11:08:03.713Z,18.97
2018-02-23T11:10:31.231Z,19.57
2018-02-23T11:12:58.764Z,18.83
2018-02-23T11:15:26.277Z,18.33
2018-02-23T11:17:53.801Z,18.10
2018-02-23T11:20:21.318Z,17.63
2018-02-23T11:22:48.830Z,17.73
2018-02-23T11:25:16.338Z,17.70
2018-02-23T11:27:43.851Z,17.63
2018-02-23T11:30:11.379Z,19.13
2018-02-23T11:32:38.899Z,20.00
2018-02-23T11:35:06.408Z,19.47
2018-02-23T11:37:33.933Z,18.33
2018-02-23T11:40:01.451Z,19.40
2018-02-23T11:42:29.001Z,20.67
2018-02-23T11:44:56.516Z,18.90
2018-02-23T11:47:24.053Z,18.40
2018-02-23T11:49:51.569Z,18.83
2018-02-23T11:52:19.081Z,19.17
2018-02-23T11:54:46.661Z,18.57
2018-02-23T11:57:14.188Z,15.70
2018-02-23T11:59:41.705Z,18.63
2018-02-23T12:02:09.226Z,19.23
2018-02-23T12:04:36.767Z,18.70
2018-02-23T12:07:04.286Z,18.20
2018-02-23T12:09:31.803Z,17.57
2018-02-23T12:11:59.326Z,16.93
2018-02-23T12:14:26.937Z,18.13
2018-02-23T12:16:54.457Z,17.03
2018-02-23T12:19:21.982Z,18.13
2018-02-23T12:21:49.497Z,17.90
2018-02-23T12:24:17.018Z,16.53
2018-02-23T12:26:44.548Z,19.20
2018-02-23T12:29:12.062Z,19.50
2018-02-23T12:31:39.580Z,19.03
2018-02-23T12:34:07.094Z,18.77
2018-02-23T12:36:34.629Z,17.77
2018-02-23T12:39:02.144Z,19.43
2018-02-23T12:41:29.681Z,18.93
2018-02-23T12:43:57.209Z,18.33
2018-02-23T12:46:24.732Z,17.33
2018-02-23T12:48:52.245Z,18.37
2018-02-23T12:51:19.758Z,17.63
2018-02-23T12:53:47.277Z,18.70
2018-02-23T12:56:14.816Z,18.70
2018-02-23T12:58:42.334Z,17.87
2018-02-23T13:01:09.870Z,19.43
2018-02-23T13:03:37.390Z,17.80
2018-02-23T13:06:04.914Z,18.07
2018-02-23T13:08:32.440Z,17.57
2018-02-23T13:10:59.951Z,18.30
2018-02-23T13:13:27.465Z,17.50
2018-02-23T13:15:54.989Z,18.17
2018-02-23T13:18:22.508Z,17.73
2018-02-23T13:20:50.025Z,17.87
2018-02-23T13:23:17.544Z,17.63
2018-02-23T13:25:45.064Z,16.50
2018-02-23T13:28:18.125Z,16.33
2018-02-23T13:30:45.638Z,17.57
2018-02-23T13:33:13.155Z,18.07
2018-02-23T13:35:40.682Z,18.67
2018-02-23T13:38:08.206Z,18.23
2018-02-23T13:40:35.724Z,18.77
2018-02-23T13:43:03.234Z,19.13
2018-02-23T13:45:30.762Z,18.80
2018-02-23T13:47:58.311Z,19.80
2018-02-23T13:50:25.828Z,20.23
2018-02-23T13:52:53.356Z,19.50
2018-02-23T13:55:20.873Z,19.80
2018-02-23T13:57:48.420Z,19.37
2018-02-23T14:00:15.939Z,19.53
2018-02-23T14:02:43.454Z,20.67
2018-02-23T14:05:10.980Z,19.27
2018-02-23T14:07:38.508Z,18.60
2018-02-23T14:10:06.030Z,17.33
2018-02-23T14:12:33.547Z,17.47
2018-02-23T14:15:01.062Z,18.27
2018-02-23T14:17:28.588Z,18.13
2018-02-23T14:19:56.117Z,19.03
2018-02-23T14:22:23.628Z,17.17
2018-02-23T14:24:51.136Z,17.27
2018-02-23T14:27:18.662Z,15.97
2018-02-23T14:29:46.181Z,16.20
2018-02-23T14:32:13.704Z,15.33
2018-02-23T14:34:41.231Z,15.33
2018-02-23T14:37:08.751Z,15.63
2018-02-23T14:39:36.267Z,15.23
2018-02-23T14:42:03.785Z,14.87
2018-02-23T14:44:31.301Z,14.57
2018-02-23T14:46:58.817Z,14.97
2018-02-23T14:49:26.338Z,14.60
2018-02-23T14:51:53.850Z,14.40
2018-02-23T14:54:21.430Z,15.00
2018-02-23T14:56:48.946Z,14.63
2018-02-23T14:59:16.511Z,14.80
2018-02-23T15:01:44.023Z,15.37
2018-02-23T15:04:11.545Z,15.13
2018-02-23T15:06:39.063Z,14.30
2018-02-23T15:09:06.592Z,14.30
2018-02-23T15:11:34.111Z,13.53
2018-02-23T15:14:01.627Z,14.63
2018-02-23T15:16:29.142Z,14.73
2018-02-23T15:18:56.668Z,15.67
2018-02-23T15:21:24.189Z,16.27
2018-02-23T15:23:51.704Z,15.67
2018-02-23T15:26:19.214Z,16.77
2018-02-23T15:28:46.737Z,15.90
2018-02-23T15:31:26.029Z,15.63
2018-02-23T15:33:53.577Z,15.80
2018-02-23T15:36:21.116Z,13.73
2018-02-23T15:38:48.626Z,13.77
2018-02-23T15:41:16.178Z,15.73
2018-02-23T15:43:43.693Z,14.57
2018-02-23T15:46:11.271Z,14.90
2018-02-23T15:48:46.289Z,14.97
2018-02-23T15:51:25.492Z,14.83
2018-02-23T15:53:53.010Z,15.80
2018-02-23T15:56:20.543Z,15.50
2018-02-23T15:58:48.073Z,15.27
2018-02-23T16:01:15.589Z,15.40
2018-02-23T16:03:43.121Z,17.37
2018-02-23T16:06:10.648Z,17.10
2018-02-23T16:08:38.174Z,17.27
2018-02-23T16:11:05.693Z,16.07
2018-02-23T16:13:33.228Z,18.20
2018-02-23T16:16:00.751Z,17.73
2018-02-23T16:18:28.306Z,17.63
2018-02-23T16:20:55.836Z,15.77
2018-02-23T16:23:23.353Z,15.77
2018-02-23T16:25:50.885Z,15.93
2018-02-23T16:28:18.423Z,15.37
2018-02-23T16:30:45.991Z,14.33
2018-02-23T16:33:13.511Z,14.40
2018-02-23T16:35:41.044Z,14.33
2018-02-23T16:38:08.568Z,14.23
2018-02-23T16:40:36.090Z,14.20
2018-02-23T16:43:03.609Z,13.87
2018-02-23T16:45:31.137Z,13.93
2018-02-23T16:47:58.666Z,13.47
2018-02-23T16:50:26.184Z,13.10
2018-02-23T16:52:53.710Z,12.57
2018-02-23T16:55:21.253Z,12.37
2018-02-23T16:57:48.774Z,11.87
2018-02-23T17:00:16.298Z,11.70
2018-02-23T17:02:43.828Z,11.47
2018-02-23T17:05:11.341Z,10.97
2018-02-23T17:07:38.860Z,10.67
2018-02-23T17:10:06.383Z,10.37
2018-02-23T17:12:33.910Z,12.00
2018-02-23T17:15:01.509Z,11.13
2018-02-23T17:17:29.026Z,11.77
2018-02-23T17:19:56.548Z,11.97
2018-02-23T17:22:24.072Z,10.63
2018-02-23T17:24:51.592Z,11.80
2018-02-23T17:27:19.129Z,11.83
2018-02-23T17:29:46.658Z,11.17
2018-02-23T17:32:14.181Z,11.37
2018-02-23T17:34:41.696Z,11.97
2018-02-23T17:37:09.251Z,11.90
2018-02-23T17:39:36.774Z,12.57
2018-02-23T17:42:04.290Z,12.13
2018-02-23T17:44:31.810Z,11.63
2018-02-23T17:46:59.353Z,11.53
2018-02-23T17:49:26.873Z,12.40
2018-02-23T17:51:54.401Z,10.97
2018-02-23T17:54:21.920Z,11.57
2018-02-23T17:56:52.123Z,11.73
2018-02-23T17:59:19.665Z,11.80
2018-02-23T18:01:47.176Z,13.40
2018-02-23T18:04:14.716Z,12.00
2018-02-23T18:06:42.244Z,11.43
2018-02-23T18:09:09.765Z,12.13
2018-02-23T18:11:37.286Z,11.43
2018-02-23T18:14:04.830Z,11.43
2018-02-23T18:16:32.354Z,11.70
2018-02-23T18:18:59.918Z,11.27
2018-02-23T18:21:27.445Z,10.50
2018-02-23T18:23:54.970Z,11.33
2018-02-23T18:26:22.490Z,11.87
2018-02-23T18:28:50.008Z,10.30
2018-02-23T18:31:17.531Z,11.47
2018-02-23T18:33:45.061Z,11.13
2018-02-23T18:36:12.573Z,11.87
2018-02-23T18:38:40.101Z,12.63
2018-02-23T18:41:07.625Z,11.97
2018-02-23T18:43:35.138Z,11.93
2018-02-23T18:46:02.676Z,11.47
2018-02-23T18:48:30.326Z,11.73
2018-02-23T18:50:57.859Z,11.90
2018-02-23T18:53:25.380Z,12.03
2018-02-23T18:55:52.895Z,12.73
2018-02-23T18:58:20.428Z,12.57
2018-02-23T19:00:48.024Z,12.30
2018-02-23T19:03:15.545Z,11.63
2018-02-23T19:05:43.060Z,11.27
2018-02-23T19:08:10.578Z,12.47
2018-02-23T19:10:38.170Z,11.50
2018-02-23T19:13:05.692Z,11.43
2018-02-23T19:15:33.248Z,11.17
2018-02-23T19:18:00.843Z,11.87
2018-02-23T19:20:28.362Z,11.83
2018-02-23T19:22:55.970Z,12.13
2018-02-23T19:25:23.529Z,12.03
2018-02-23T19:27:51.050Z,12.63
2018-02-23T19:30:18.573Z,11.17
2018-02-23T19:32:46.100Z,12.27
2018-02-23T19:35:13.621Z,12.43
2018-02-23T19:37:41.147Z,12.23
2018-02-23T19:40:08.779Z,12.07
2018-02-23T19:42:36.310Z,12.37
2018-02-23T19:45:03.828Z,12.87
2018-02-23T19:47:31.350Z,12.40
2018-02-23T19:49:58.878Z,12.57
2018-02-23T19:52:26.477Z,12.33
2018-02-23T19:54:54.012Z,11.77
2018-02-23T19:57:21.533Z,12.77
2018-02-23T19:59:49.061Z,11.83
2018-02-23T20:02:16.616Z,13.20
2018-02-23T20:04:44.129Z,12.23
2018-02-23T20:07:11.729Z,12.10
2018-02-23T20:09:39.369Z,11.57
2018-02-23T20:12:06.907Z,12.80
2018-02-23T20:14:34.434Z,12.30
2018-02-23T20:17:01.989Z,11.47
2018-02-23T20:19:29.500Z,12.13
2018-02-23T20:21:57.072Z,11.87
2018-02-23T20:24:24.590Z,12.40
2018-02-23T20:26:52.114Z,12.80
2018-02-23T20:29:19.636Z,11.67
2018-02-23T20:31:47.241Z,11.77
2018-02-23T20:34:14.767Z,12.43
2018-02-23T20:36:42.358Z,12.63
2018-02-23T20:39:09.878Z,12.07
2018-02-23T20:41:37.436Z,11.57
2018-02-23T20:44:05.005Z,12.50
2018-02-23T20:46:32.547Z,14.90
2018-02-23T20:49:00.073Z,13.47
2018-02-23T20:51:27.611Z,12.50
2018-02-23T20:53:55.131Z,12.10
2018-02-23T20:56:23.569Z,12.43
2018-02-23T20:58:51.124Z,11.70
2018-02-23T21:01:18.653Z,11.17
2018-02-23T21:03:46.169Z,10.93
2018-02-23T21:06:13.694Z,12.03
2018-02-23T21:08:41.217Z,11.73
2018-02-23T21:11:08.737Z,12.77
2018-02-23T21:13:36.274Z,11.43
2018-02-23T21:16:03.799Z,12.13
2018-02-23T21:18:31.380Z,12.20
2018-02-23T21:20:58.921Z,11.27
2018-02-23T21:23:26.451Z,12.00
2018-02-23T21:25:54.005Z,11.17
2018-02-23T21:28:21.530Z,11.57
2018-02-23T21:30:49.066Z,11.63
2018-02-23T21:33:16.593Z,11.57
2018-02-23T21:35:44.122Z,11.40
2018-02-23T21:38:11.642Z,12.30
2018-02-23T21:40:39.226Z,10.80
2018-02-23T21:43:06.762Z,10.67
2018-02-23T21:45:34.348Z,11.80
2018-02-23T21:48:01.867Z,11.67
2018-02-23T21:50:29.467Z,11.10
2018-02-23T21:52:56.997Z,11.33
2018-02-23T21:55:24.524Z,11.73
2018-02-23T21:57:52.072Z,11.70
2018-02-23T22:00:19.593Z,11.60
2018-02-23T22:02:47.159Z,12.23
2018-02-23T22:05:14.690Z,12.83
2018-02-23T22:07:42.241Z,13.83
2018-02-23T22:10:09.843Z,14.53
2018-02-23T22:12:37.393Z,14.20
2018-02-23T22:15:04.917Z,14.37
2018-02-23T22:17:32.524Z,15.37
2018-02-23T22:20:00.082Z,15.70
2018-02-23T22:22:27.600Z,15.50
2018-02-23T22:24:55.131Z,14.83
2018-02-23T22:27:22.658Z,15.07
2018-02-23T22:29:50.185Z,15.13
2018-02-23T22:32:17.784Z,15.37
2018-02-23T22:34:45.330Z,14.93
2018-02-23T22:37:12.857Z,15.93
2018-02-23T22:39:40.407Z,15.10
2018-02-23T22:42:07.940Z,15.67
2018-02-23T22:44:35.457Z,14.87
2018-02-23T22:47:03.039Z,15.60
2018-02-23T22:49:30.561Z,15.87
2018-02-23T22:51:58.095Z,15.23
2018-02-23T22:54:25.622Z,15.57
2018-02-23T22:56:53.173Z,15.60
2018-02-23T22:59:20.694Z,16.23
2018-02-23T23:01:48.249Z,15.07
2018-02-23T23:04:15.782Z,16.43
2018-02-23T23:06:43.301Z,15.93
2018-02-23T23:09:10.829Z,17.37
2018-02-23T23:11:38.395Z,15.20
2018-02-23T23:14:05.981Z,15.63
2018-02-23T23:16:33.527Z,14.97
2018-02-23T23:19:01.052Z,15.63
2018-02-23T23:21:28.574Z,15.77
2018-02-23T23:23:56.100Z,15.43
2018-02-23T23:26:23.652Z,15.47
2018-02-23T23:28:51.186Z,15.27
2018-02-23T23:31:18.713Z,14.70
2018-02-23T23:33:46.258Z,14.90
2018-02-23T23:36:13.786Z,15.33
2018-02-23T23:38:41.380Z,14.83
2018-02-23T23:41:08.909Z,15.23
2018-02-23T23:43:36.441Z,14.40
2018-02-23T23:46:03.970Z,14.73
2018-02-23T23:48:31.513Z,15.33
2018-02-23T23:50:59.041Z,14.27
2018-02-23T23:53:26.567Z,13.70
2018-02-23T23:55:54.093Z,14.57
2018-02-23T23:58:21.623Z,13.97
